Time;durP1;ratioP1;P1;durP2;ratioP2;P2;SDS_P1;SDS_P2;PMS_P1;PMS_P2;Temp;Humidity;BMP_temperature;BMP_pressure;BME280_temperature;BME280_humidity;BME280_pressure;Samples;Min_cycle;Max_cycle;Signal;HPM_P1;HPM_P2
2023/07/23 00:01:52;;;;;;;6.63;3.30;;;;;;;;;;5131290;27;20975;-60
2023/07/23 00:04:17;;;;;;;7.40;3.67;;;;;;;;;;5119786;27;20457;-61
2023/07/23 00:06:42;;;;;;;7.10;3.40;;;;;;;;;;5130895;27;20367;-60
2023/07/23 00:09:07;;;;;;;6.47;3.50;;;;;;;;;;5131270;27;20023;-61
2023/07/23 00:11:33;;;;;;;7.07;3.60;;;;;;;;;;5135724;27;20007;-60
2023/07/23 00:13:58;;;;;;;5.87;3.10;;;;;;;;;;5129980;27;20019;-61
2023/07/23 00:16:23;;;;;;;7.13;3.80;;;;;;;;;;5140973;27;20045;-59
2023/07/23 00:18:49;;;;;;;8.20;3.33;;;;;;;;;;5142347;27;20433;-59
2023/07/23 00:21:14;;;;;;;6.72;3.60;;;;;;;;;;5142853;27;20056;-60
2023/07/23 00:23:39;;;;;;;7.10;3.17;;;;;;;;;;5138412;27;20016;-61
2023/07/23 00:26:04;;;;;;;6.05;2.78;;;;;;;;;;5138327;27;20060;-60
2023/07/23 00:28:30;;;;;;;7.15;3.05;;;;;;;;;;5145380;27;20098;-61
2023/07/23 00:30:55;;;;;;;7.33;3.50;;;;;;;;;;5134626;27;20371;-60
2023/07/23 00:33:23;;;;;;;5.72;3.15;;;;;;;;;;5132328;27;20098;-60
2023/07/23 00:35:48;;;;;;;6.45;3.20;;;;;;;;;;5138446;27;20023;-60
2023/07/23 00:38:13;;;;;;;7.87;3.13;;;;;;;;;;5135019;27;20023;-60
2023/07/23 00:40:38;;;;;;;5.80;3.37;;;;;;;;;;5136777;27;20011;-61
2023/07/23 00:43:03;;;;;;;7.38;3.53;;;;;;;;;;5137480;27;20023;-60
2023/07/23 00:45:29;;;;;;;6.18;3.20;;;;;;;;;;5137133;27;20015;-61
2023/07/23 00:47:54;;;;;;;6.67;3.07;;;;;;;;;;5138485;27;20037;-61
2023/07/23 00:50:19;;;;;;;6.57;3.47;;;;;;;;;;5140103;27;20159;-60
2023/07/23 00:52:45;;;;;;;6.68;3.42;;;;;;;;;;5131369;27;20026;-60
2023/07/23 00:55:10;;;;;;;5.77;3.00;;;;;;;;;;5135472;27;20017;-60
2023/07/23 00:57:35;;;;;;;8.97;3.70;;;;;;;;;;5136994;27;20489;-60
2023/07/23 01:00:00;;;;;;;6.43;3.47;;;;;;;;;;5138218;27;20628;-61
2023/07/23 01:02:25;;;;;;;6.53;3.40;;;;;;;;;;5137820;27;20011;-60
2023/07/23 01:04:51;;;;;;;5.83;3.03;;;;;;;;;;5137112;27;20517;-61
2023/07/23 01:07:16;;;;;;;6.55;3.40;;;;;;;;;;5135750;27;20019;-60
2023/07/23 01:09:42;;;;;;;5.68;3.00;;;;;;;;;;5128575;27;20023;-60
2023/07/23 01:12:08;;;;;;;9.77;3.23;;;;;;;;;;5135371;27;20011;-60
2023/07/23 01:14:33;;;;;;;6.28;3.30;;;;;;;;;;5135485;27;20460;-60
2023/07/23 01:16:59;;;;;;;7.23;3.50;;;;;;;;;;5136664;27;20015;-60
2023/07/23 01:19:26;;;;;;;7.30;3.45;;;;;;;;;;5137396;27;20022;-59
2023/07/23 01:21:53;;;;;;;6.82;3.50;;;;;;;;;;5137359;27;20019;-60
2023/07/23 01:24:18;;;;;;;6.03;3.38;;;;;;;;;;5131352;27;20010;-60
2023/07/23 01:26:44;;;;;;;6.07;3.30;;;;;;;;;;5133752;27;20050;-60
2023/07/23 01:29:10;;;;;;;6.47;3.40;;;;;;;;;;5131840;27;20114;-60
2023/07/23 01:31:35;;;;;;;5.90;2.78;;;;;;;;;;5133835;27;20382;-61
2023/07/23 01:34:04;;;;;;;6.03;3.03;;;;;;;;;;5133692;27;20022;-61
2023/07/23 01:36:29;;;;;;;7.25;3.25;;;;;;;;;;5134256;27;20076;-61
2023/07/23 01:38:54;;;;;;;6.07;3.13;;;;;;;;;;5128614;27;20106;-61
2023/07/23 01:41:19;;;;;;;6.33;3.17;;;;;;;;;;5132671;27;20020;-61
2023/07/23 01:43:45;;;;;;;6.20;3.20;;;;;;;;;;5133358;27;20019;-59
2023/07/23 01:46:10;;;;;;;8.63;2.97;;;;;;;;;;5132041;27;20075;-59
2023/07/23 01:48:35;;;;;;;7.78;3.10;;;;;;;;;;5133951;27;20436;-60
2023/07/23 01:51:00;;;;;;;5.88;2.83;;;;;;;;;;5133899;27;20022;-60
2023/07/23 01:53:25;;;;;;;6.47;3.37;;;;;;;;;;5121864;27;20102;-61
2023/07/23 01:55:51;;;;;;;5.97;3.17;;;;;;;;;;5123457;27;20050;-61
2023/07/23 01:58:16;;;;;;;6.67;3.10;;;;;;;;;;5129168;27;20054;-61
2023/07/23 02:00:41;;;;;;;6.15;3.42;;;;;;;;;;5128113;27;20023;-59
2023/07/23 02:03:06;;;;;;;7.00;3.33;;;;;;;;;;5123662;27;20042;-61
2023/07/23 02:05:31;;;;;;;6.00;2.97;;;;;;;;;;5133863;27;20472;-62
2023/07/23 02:07:56;;;;;;;5.83;3.37;;;;;;;;;;5129109;27;20011;-59
2023/07/23 02:10:21;;;;;;;9.53;3.73;;;;;;;;;;5126085;27;20114;-59
2023/07/23 02:12:47;;;;;;;5.97;3.00;;;;;;;;;;5133099;27;20038;-61
2023/07/23 02:15:12;;;;;;;5.30;2.90;;;;;;;;;;5133641;27;20474;-61
2023/07/23 02:17:37;;;;;;;6.32;3.33;;;;;;;;;;5133511;27;20071;-60
2023/07/23 02:20:03;;;;;;;6.67;3.27;;;;;;;;;;5133662;27;20015;-61
2023/07/23 02:22:29;;;;;;;6.47;3.00;;;;;;;;;;5133031;27;20959;-59
2023/07/23 02:24:54;;;;;;;5.67;3.00;;;;;;;;;;5129360;27;20042;-62
2023/07/23 02:27:19;;;;;;;7.40;3.40;;;;;;;;;;5121838;27;20089;-60
2023/07/23 02:29:44;;;;;;;6.95;3.00;;;;;;;;;;5126187;27;20031;-61
2023/07/23 02:32:10;;;;;;;6.23;3.30;;;;;;;;;;5133080;27;20359;-59
2023/07/23 02:34:35;;;;;;;6.07;3.15;;;;;;;;;;5131125;27;20027;-61
2023/07/23 02:37:00;;;;;;;6.07;3.20;;;;;;;;;;5127118;27;20023;-61
2023/07/23 02:39:25;;;;;;;6.93;3.38;;;;;;;;;;5132097;27;20015;-60
2023/07/23 02:41:50;;;;;;;5.90;3.35;;;;;;;;;;5136171;27;20039;-60
2023/07/23 02:44:16;;;;;;;5.63;2.97;;;;;;;;;;5125510;27;20930;-59
2023/07/23 02:46:41;;;;;;;5.70;2.97;;;;;;;;;;5145425;27;20106;-60
2023/07/23 02:49:06;;;;;;;7.37;3.43;;;;;;;;;;5144607;27;20038;-61
2023/07/23 02:51:31;;;;;;;5.25;2.80;;;;;;;;;;5137380;27;20111;-60
2023/07/23 02:53:57;;;;;;;7.37;3.10;;;;;;;;;;5139801;27;20029;-61
2023/07/23 02:56:22;;;;;;;5.55;2.65;;;;;;;;;;5149133;27;20388;-59
2023/07/23 02:58:47;;;;;;;6.67;3.10;;;;;;;;;;5125814;27;20519;-60
2023/07/23 03:01:12;;;;;;;5.13;2.70;;;;;;;;;;5130485;27;20097;-60
2023/07/23 03:03:37;;;;;;;6.63;2.90;;;;;;;;;;5136473;27;20463;-61
2023/07/23 03:06:05;;;;;;;6.90;2.80;;;;;;;;;;5138903;27;20098;-60
2023/07/23 03:08:31;;;;;;;5.80;3.03;;;;;;;;;;5120003;27;20039;-60
2023/07/23 03:10:56;;;;;;;7.23;2.83;;;;;;;;;;5143489;27;20429;-62
2023/07/23 03:13:21;;;;;;;7.60;3.13;;;;;;;;;;5134734;27;20019;-60
2023/07/23 03:15:46;;;;;;;6.30;3.00;;;;;;;;;;5139261;27;20019;-60
2023/07/23 03:18:11;;;;;;;6.63;3.17;;;;;;;;;;5126418;27;20015;-60
2023/07/23 03:20:37;;;;;;;5.27;2.70;;;;;;;;;;5132419;27;20050;-60
2023/07/23 03:23:02;;;;;;;5.93;2.90;;;;;;;;;;5125012;27;20517;-59
2023/07/23 03:25:27;;;;;;;6.70;3.17;;;;;;;;;;5138798;27;20015;-61
2023/07/23 03:27:53;;;;;;;6.22;3.15;;;;;;;;;;5141935;27;20015;-60
2023/07/23 03:30:18;;;;;;;6.00;3.08;;;;;;;;;;5133907;27;20478;-60
2023/07/23 03:32:43;;;;;;;6.30;2.90;;;;;;;;;;5141136;27;20011;-61
2023/07/23 03:35:08;;;;;;;7.65;3.20;;;;;;;;;;5150689;27;20553;-61
2023/07/23 03:37:33;;;;;;;4.77;2.57;;;;;;;;;;5128542;27;20020;-61
2023/07/23 03:39:58;;;;;;;7.87;3.20;;;;;;;;;;5127443;27;20023;-60
2023/07/23 03:42:24;;;;;;;6.03;3.08;;;;;;;;;;5138838;27;20109;-61
2023/07/23 03:44:49;;;;;;;6.28;2.63;;;;;;;;;;5132187;27;20921;-60
2023/07/23 03:47:15;;;;;;;6.05;2.90;;;;;;;;;;5136855;27;20098;-60
2023/07/23 03:49:41;;;;;;;8.05;2.92;;;;;;;;;;5125220;27;20104;-60
2023/07/23 03:52:06;;;;;;;5.18;2.38;;;;;;;;;;5136887;27;20389;-60
2023/07/23 03:54:32;;;;;;;7.43;3.10;;;;;;;;;;5132120;27;20545;-60
2023/07/23 03:56:57;;;;;;;5.45;2.80;;;;;;;;;;5138432;27;20027;-60
2023/07/23 03:59:22;;;;;;;5.38;2.47;;;;;;;;;;5129947;27;20016;-60
2023/07/23 04:01:47;;;;;;;6.33;2.90;;;;;;;;;;5128305;27;20019;-59
2023/07/23 04:04:12;;;;;;;5.90;2.70;;;;;;;;;;5124598;27;20042;-60
2023/07/23 04:06:37;;;;;;;6.30;2.60;;;;;;;;;;5124582;27;20034;-61
2023/07/23 04:09:03;;;;;;;5.40;2.63;;;;;;;;;;5131293;27;20011;-61
2023/07/23 04:11:28;;;;;;;5.63;2.80;;;;;;;;;;5131319;27;20016;-60
2023/07/23 04:13:53;;;;;;;5.97;2.33;;;;;;;;;;5131060;27;20094;-60
2023/07/23 04:16:18;;;;;;;6.10;2.55;;;;;;;;;;5131517;27;20023;-60
2023/07/23 04:18:47;;;;;;;5.53;2.95;;;;;;;;;;5131370;27;20530;-60
2023/07/23 04:21:13;;;;;;;5.32;2.70;;;;;;;;;;5131034;27;20482;-62
2023/07/23 04:23:38;;;;;;;7.38;2.90;;;;;;;;;;5124065;27;20030;-60
2023/07/23 04:26:03;;;;;;;7.72;3.05;;;;;;;;;;5131416;27;20015;-60
2023/07/23 04:28:28;;;;;;;6.35;2.63;;;;;;;;;;5131328;27;20023;-60
2023/07/23 04:30:54;;;;;;;5.57;2.77;;;;;;;;;;5131223;27;20466;-63
2023/07/23 04:33:19;;;;;;;6.70;3.22;;;;;;;;;;5130572;27;20090;-60
2023/07/23 04:35:44;;;;;;;5.63;2.60;;;;;;;;;;5125235;27;20600;-61
2023/07/23 04:38:10;;;;;;;5.38;2.50;;;;;;;;;;5129434;27;20038;-59
2023/07/23 04:40:35;;;;;;;4.78;2.42;;;;;;;;;;5123563;27;20084;-59
2023/07/23 04:43:00;;;;;;;6.32;2.70;;;;;;;;;;5130543;27;20401;-60
2023/07/23 04:45:25;;;;;;;5.33;2.50;;;;;;;;;;5131157;27;20094;-60
2023/07/23 04:47:50;;;;;;;5.57;2.78;;;;;;;;;;5122904;27;20007;-61
2023/07/23 04:50:16;;;;;;;5.55;2.90;;;;;;;;;;5131353;27;20031;-61
2023/07/23 04:52:41;;;;;;;5.37;2.67;;;;;;;;;;5127961;27;20634;-61
2023/07/23 04:55:08;;;;;;;5.80;3.05;;;;;;;;;;5133530;27;20027;-61
2023/07/23 04:57:33;;;;;;;5.78;2.92;;;;;;;;;;5126165;27;20072;-61
2023/07/23 04:59:58;;;;;;;5.07;2.47;;;;;;;;;;5127593;27;20390;-61
2023/07/23 05:02:23;;;;;;;5.13;2.80;;;;;;;;;;5125629;27;20054;-60
2023/07/23 05:04:49;;;;;;;5.17;2.77;;;;;;;;;;5139466;27;20534;-59
2023/07/23 05:07:14;;;;;;;6.67;2.80;;;;;;;;;;5141089;27;20023;-59
2023/07/23 05:09:41;;;;;;;5.38;2.33;;;;;;;;;;5137434;27;20027;-58
2023/07/23 05:12:06;;;;;;;5.43;3.08;;;;;;;;;;5135210;27;20052;-61
2023/07/23 05:14:31;;;;;;;5.68;2.75;;;;;;;;;;5135948;27;20064;-59
2023/07/23 05:16:56;;;;;;;7.23;2.70;;;;;;;;;;5134130;27;20397;-60
2023/07/23 05:19:22;;;;;;;7.35;3.10;;;;;;;;;;5127557;27;20028;-61
2023/07/23 05:21:47;;;;;;;4.60;2.67;;;;;;;;;;5141353;27;20501;-60
2023/07/23 05:24:12;;;;;;;6.00;2.50;;;;;;;;;;5134891;27;20019;-59
2023/07/23 05:26:37;;;;;;;5.57;2.93;;;;;;;;;;5132294;27;20046;-60
2023/07/23 05:29:02;;;;;;;5.72;2.70;;;;;;;;;;5133302;27;20034;-61
2023/07/23 05:31:27;;;;;;;6.30;2.90;;;;;;;;;;5132252;27;20506;-61
2023/07/23 05:33:52;;;;;;;5.70;2.47;;;;;;;;;;5129028;27;20075;-62
2023/07/23 05:36:18;;;;;;;5.40;2.97;;;;;;;;;;5134444;27;20019;-60
2023/07/23 05:38:43;;;;;;;7.50;2.43;;;;;;;;;;5134438;27;20625;-61
2023/07/23 05:41:08;;;;;;;5.57;2.60;;;;;;;;;;5124486;27;20020;-60
2023/07/23 05:43:33;;;;;;;5.13;2.73;;;;;;;;;;5119255;27;20505;-62
2023/07/23 05:45:58;;;;;;;4.40;2.40;;;;;;;;;;5124413;27;20532;-62
2023/07/23 05:48:23;;;;;;;5.17;2.70;;;;;;;;;;5133465;27;20497;-61
2023/07/23 05:50:49;;;;;;;5.53;2.57;;;;;;;;;;5128639;27;20083;-61
2023/07/23 05:53:14;;;;;;;4.83;2.37;;;;;;;;;;5137131;27;20019;-62
2023/07/23 05:55:40;;;;;;;5.82;2.50;;;;;;;;;;5126523;27;20540;-62
2023/07/23 05:58:06;;;;;;;6.03;3.10;;;;;;;;;;5141493;27;20102;-62
2023/07/23 06:00:31;;;;;;;;;;;;;;;;;;5155410;27;20042;-61
2023/07/23 06:02:56;;;;;;;5.95;2.65;;;;;;;;;;5154596;27;19957;-62
2023/07/23 06:05:21;;;;;;;7.50;2.97;;;;;;;;;;5154606;27;20093;-59
2023/07/23 06:07:46;;;;;;;5.63;2.75;;;;;;;;;;5154762;27;20048;-62
2023/07/23 06:10:12;;;;;;;4.90;2.40;;;;;;;;;;5139881;27;20055;-62
2023/07/23 06:12:37;;;;;;;5.30;2.53;;;;;;;;;;5130644;27;20094;-62
2023/07/23 06:15:02;;;;;;;4.83;2.30;;;;;;;;;;5145207;27;20010;-62
2023/07/23 06:17:28;;;;;;;4.57;2.38;;;;;;;;;;5111713;27;20609;-62
2023/07/23 06:19:53;;;;;;;;;;;;;;;;;;5131816;27;20026;-61
2023/07/23 06:22:18;;;;;;;6.88;2.72;;;;;;;;;;5125798;27;19915;-61
2023/07/23 06:24:43;;;;;;;;;;;;;;;;;;5126346;27;20066;-60
2023/07/23 06:27:08;;;;;;;5.53;2.80;;;;;;;;;;5131581;27;19915;-60
2023/07/23 06:29:33;;;;;;;5.38;2.75;;;;;;;;;;5131961;27;20023;-61
2023/07/23 06:31:58;;;;;;;6.13;2.50;;;;;;;;;;5124362;27;20079;-60
2023/07/23 06:34:24;;;;;;;5.77;2.80;;;;;;;;;;5118827;27;20071;-61
2023/07/23 06:36:49;;;;;;;7.28;2.90;;;;;;;;;;5135456;27;20070;-61
2023/07/23 06:39:14;;;;;;;5.07;2.40;;;;;;;;;;5122909;27;20034;-60
2023/07/23 06:41:40;;;;;;;5.67;2.53;;;;;;;;;;5112537;27;20052;-59
2023/07/23 06:44:05;;;;;;;;;;;;;;;;;;5131791;27;20506;-60
2023/07/23 06:46:30;;;;;;;5.35;2.35;;;;;;;;;;5125036;27;20358;-62
2023/07/23 06:48:56;;;;;;;5.40;2.67;;;;;;;;;;5119864;27;20030;-62
2023/07/23 06:51:21;;;;;;;5.15;2.90;;;;;;;;;;5120048;27;20455;-60
2023/07/23 06:53:46;;;;;;;4.90;2.60;;;;;;;;;;5122658;27;20435;-59
2023/07/23 06:56:13;;;;;;;5.43;2.53;;;;;;;;;;5129206;27;20026;-61
2023/07/23 06:58:38;;;;;;;5.00;2.58;;;;;;;;;;5145003;27;20031;-61
2023/07/23 07:01:04;;;;;;;5.63;2.60;;;;;;;;;;5117553;27;20020;-61
2023/07/23 07:03:29;;;;;;;5.05;2.58;;;;;;;;;;5125094;27;20023;-61
2023/07/23 07:05:54;;;;;;;6.17;2.47;;;;;;;;;;5123742;27;20026;-59
2023/07/23 07:08:20;;;;;;;5.15;2.60;;;;;;;;;;5124678;27;20015;-60
2023/07/23 07:10:46;;;;;;;5.10;2.10;;;;;;;;;;5134332;27;20137;-59
2023/07/23 07:13:11;;;;;;;6.50;2.60;;;;;;;;;;5134387;27;20467;-62
2023/07/23 07:15:36;;;;;;;5.63;2.53;;;;;;;;;;5142419;27;20107;-62
2023/07/23 07:18:03;;;;;;;5.90;2.60;;;;;;;;;;5128992;27;20042;-62
2023/07/23 07:20:28;;;;;;;5.78;2.63;;;;;;;;;;5116004;27;20387;-59
2023/07/23 07:22:53;;;;;;;5.55;2.60;;;;;;;;;;5119451;27;20023;-60
2023/07/23 07:25:18;;;;;;;;;;;;;;;;;;5118319;27;20062;-60
2023/07/23 07:27:43;;;;;;;6.00;2.20;;;;;;;;;;5118438;27;20254;-60
2023/07/23 07:30:08;;;;;;;;;;;;;;;;;;5116380;27;20019;-62
2023/07/23 07:32:34;;;;;;;5.10;2.35;;;;;;;;;;5124227;27;19911;-61
2023/07/23 07:34:59;;;;;;;;;;;;;;;;;;5134393;27;20022;-60
2023/07/23 07:37:27;;;;;;;4.88;2.20;;;;;;;;;;5131187;27;19907;-62
2023/07/23 07:39:52;;;;;;;5.47;2.47;;;;;;;;;;5119767;27;20034;-60
2023/07/23 07:42:17;;;;;;;;;;;;;;;;;;5119510;27;20035;-62
2023/07/23 07:44:42;;;;;;;4.63;2.10;;;;;;;;;;5134964;27;19971;-62
2023/07/23 07:47:07;;;;;;;5.03;2.42;;;;;;;;;;5111853;27;20020;-61
2023/07/23 07:49:32;;;;;;;;;;;;;;;;;;5120561;27;20039;-62
2023/07/23 07:51:58;;;;;;;5.20;2.08;;;;;;;;;;5116129;27;19916;-61
2023/07/23 07:54:23;;;;;;;;;;;;;;;;;;5108022;27;20027;-63
2023/07/23 07:56:49;;;;;;;4.90;2.47;;;;;;;;;;5120289;27;19915;-60
2023/07/23 07:59:15;;;;;;;5.53;2.70;;;;;;;;;;5130289;27;21826;-61
2023/07/23 08:01:40;;;;;;;;;;;;;;;;;;5119585;27;20034;-60
2023/07/23 08:04:07;;;;;;;5.88;2.50;;;;;;;;;;5116636;27;19911;-61
2023/07/23 08:06:38;;;;;;;6.38;2.35;;;;;;;;;;5117893;27;20019;-60
2023/07/23 08:09:04;;;;;;;4.20;2.20;;;;;;;;;;5110320;27;20035;-62
2023/07/23 08:11:29;;;;;;;;;;;;;;;;;;5137916;27;20060;-62
2023/07/23 08:13:55;;;;;;;5.63;2.20;;;;;;;;;;5137361;27;19911;-59
2023/07/23 08:16:20;;;;;;;5.22;2.20;;;;;;;;;;5130875;27;21663;-62
2023/07/23 08:18:45;;;;;;;5.23;2.30;;;;;;;;;;5119279;27;20034;-62
2023/07/23 08:21:10;;;;;;;;;;;;;;;;;;5135444;27;20042;-62
2023/07/23 08:23:36;;;;;;;4.80;2.40;;;;;;;;;;5130866;27;19930;-61
2023/07/23 08:26:03;;;;;;;4.47;2.45;;;;;;;;;;5126362;27;20011;-61
2023/07/23 08:28:29;;;;;;;6.07;2.40;;;;;;;;;;5116274;27;20038;-61
2023/07/23 08:30:55;;;;;;;;;;;;;;;;;;5121242;27;20037;-61
2023/07/23 08:33:22;;;;;;;5.55;2.40;;;;;;;;;;5138967;27;19907;-59
2023/07/23 08:35:47;;;;;;;5.85;2.42;;;;;;;;;;5135409;27;20440;-60
2023/07/23 08:38:12;;;;;;;5.18;2.50;;;;;;;;;;5132264;27;20039;-61
2023/07/23 08:40:37;;;;;;;;;;;;;;;;;;5123073;27;20189;-62
2023/07/23 08:43:15;;;;;;;6.07;2.47;;;;;;;;;;5133687;27;21453;-61
2023/07/23 08:46:07;;;;;;;4.40;2.40;;;;;;;;;;5130267;27;20035;-61
2023/07/23 08:48:47;;;;;;;4.25;2.22;;;;;;;;;;5098670;27;20106;-61
2023/07/23 08:51:12;;;;;;;4.60;2.35;;;;;;;;;;5132446;27;20023;-63
2023/07/23 08:53:37;;;;;;;;;;;;;;;;;;5135844;27;20106;-60
2023/07/23 08:56:03;;;;;;;4.50;2.03;;;;;;;;;;5142357;27;19904;-61
2023/07/23 08:58:29;;;;;;;;;;;;;;;;;;5135661;27;20531;-61
2023/07/23 09:00:55;;;;;;;4.85;2.28;;;;;;;;;;5134551;27;19919;-60
2023/07/23 09:03:21;;;;;;;;;;;;;;;;;;5126452;27;20073;-60
2023/07/23 09:05:46;;;;;;;7.05;2.35;;;;;;;;;;5133954;27;19910;-62
2023/07/23 09:08:11;;;;;;;;;;;;;;;;;;5131087;27;20016;-63
2023/07/23 09:10:37;;;;;;;4.60;2.08;;;;;;;;;;5130945;27;19919;-62
2023/07/23 09:13:14;;;;;;;4.15;2.00;;;;;;;;;;5120995;27;20021;-61
2023/07/23 09:15:39;;;;;;;4.43;1.88;;;;;;;;;;5128630;27;20102;-63
2023/07/23 09:18:04;;;;;;;;;;;;;;;;;;5136961;27;20098;-61
2023/07/23 09:20:29;;;;;;;4.25;2.00;;;;;;;;;;5116379;27;20279;-62
2023/07/23 09:22:55;;;;;;;;;;;;;;;;;;5114184;28;20011;-60
2023/07/23 09:25:20;;;;;;;4.80;2.20;;;;;;;;;;5114783;28;19907;-61
2023/07/23 09:27:45;;;;;;;;;;;;;;;;;;5114373;27;21023;-63
2023/07/23 09:30:18;;;;;;;5.90;2.03;;;;;;;;;;5112792;28;19957;-61
2023/07/23 09:32:44;;;;;;;4.93;2.25;;;;;;;;;;5115368;27;20140;-61
2023/07/23 09:35:09;;;;;;;;;;;;;;;;;;5135051;27;20035;-61
2023/07/23 09:37:35;;;;;;;4.50;1.90;;;;;;;;;;5134671;27;19914;-59
2023/07/23 09:40:00;;;;;;;5.22;2.20;;;;;;;;;;5133126;27;20022;-60
2023/07/23 09:42:25;;;;;;;;;;;;;;;;;;5134757;27;20023;-63
2023/07/23 09:44:51;;;;;;;4.47;2.00;;;;;;;;;;5133043;27;19907;-61
2023/07/23 09:47:16;;;;;;;;;;;;;;;;;;5134957;27;20015;-61
2023/07/23 09:49:41;;;;;;;4.63;2.20;;;;;;;;;;5134247;27;19912;-61
2023/07/23 09:52:07;;;;;;;;;;;;;;;;;;5127752;27;20088;-61
2023/07/23 09:54:32;;;;;;;3.72;1.88;;;;;;;;;;5133260;27;19907;-61
2023/07/23 09:56:58;;;;;;;5.72;2.28;;;;;;;;;;5131038;27;20039;-62
2023/07/23 09:59:23;;;;;;;;;;;;;;;;;;5114431;28;20024;-62
2023/07/23 10:01:48;;;;;;;4.35;1.65;;;;;;;;;;5114018;28;19934;-61
2023/07/23 10:04:13;;;;;;;;;;;;;;;;;;5114406;28;20562;-63
2023/07/23 10:06:39;;;;;;;6.75;1.63;;;;;;;;;;5115198;28;19992;-60
2023/07/23 10:09:04;;;;;;;;;;;;;;;;;;5116043;28;20059;-60
2023/07/23 10:11:29;;;;;;;4.03;1.90;;;;;;;;;;5112781;28;19904;-61
2023/07/23 10:13:54;;;;;;;6.17;1.97;;;;;;;;;;5112922;28;20024;-59
2023/07/23 10:16:32;;;;;;;4.50;2.15;;;;;;;;;;5116511;27;20032;-61
2023/07/23 10:18:57;;;;;;;5.82;2.15;;;;;;;;;;5122262;27;20024;-62
2023/07/23 10:21:23;;;;;;;;;;;;;;;;;;5120730;27;20374;-60
2023/07/23 10:23:52;;;;;;;4.55;1.90;;;;;;;;;;5130209;27;19911;-63
2023/07/23 10:26:22;;;;;;;4.95;1.90;;;;;;;;;;5118039;27;20050;-60
2023/07/23 10:28:55;;;;;;;4.28;1.85;;;;;;;;;;5118053;27;20379;-60
2023/07/23 10:31:22;;;;;;;4.50;2.03;;;;;;;;;;5129361;27;20094;-62
2023/07/23 10:33:50;;;;;;;4.20;1.90;;;;;;;;;;5123490;27;20026;-62
2023/07/23 10:36:16;;;;;;;4.53;2.05;;;;;;;;;;5124997;27;20027;-63
2023/07/23 10:38:41;;;;;;;;;;;;;;;;;;5130400;27;20027;-61
2023/07/23 10:41:07;;;;;;;6.47;1.70;;;;;;;;;;5127904;27;20319;-61
2023/07/23 10:43:38;;;;;;;4.43;1.70;;;;;;;;;;5127626;27;20026;-62
2023/07/23 10:46:13;;;;;;;6.13;2.00;;;;;;;;;;5126011;27;20023;-60
2023/07/23 10:48:43;;;;;;;4.72;1.98;;;;;;;;;;5127734;27;20054;-62
2023/07/23 10:51:10;;;;;;;3.83;1.80;;;;;;;;;;5131169;27;20445;-61
2023/07/23 10:53:51;;;;;;;4.00;2.00;;;;;;;;;;5129186;27;20019;-60
2023/07/23 10:56:20;;;;;;;4.80;2.50;;;;;;;;;;5125879;27;20135;-61
2023/07/23 10:58:45;;;;;;;4.30;2.20;;;;;;;;;;5129293;27;20025;-62
2023/07/23 11:01:11;;;;;;;;;;;;;;;;;;5131834;27;20464;-62
2023/07/23 11:03:42;;;;;;;4.10;2.00;;;;;;;;;;5128497;27;19912;-61
2023/07/23 11:06:23;;;;;;;4.20;2.00;;;;;;;;;;5128352;27;20065;-61
2023/07/23 11:08:48;;;;;;;4.95;2.40;;;;;;;;;;5128593;27;20019;-62
2023/07/23 11:11:14;;;;;;;;;;;;;;;;;;5129781;27;20026;-61
2023/07/23 11:13:39;;;;;;;10.27;2.13;;;;;;;;;;5111761;27;19919;-61
2023/07/23 11:16:04;;;;;;;5.63;2.00;;;;;;;;;;5127344;27;20063;-61
2023/07/23 11:18:29;;;;;;;;;;;;;;;;;;5129480;27;20038;-62
2023/07/23 11:20:56;;;;;;;4.28;2.22;;;;;;;;;;5128723;27;19910;-63
2023/07/23 11:23:25;;;;;;;5.38;2.10;;;;;;;;;;5128490;27;20015;-61
2023/07/23 11:25:50;;;;;;;5.60;2.13;;;;;;;;;;5128356;27;20030;-62
2023/07/23 11:28:15;;;;;;;;;;;;;;;;;;5131082;27;20019;-62
2023/07/23 11:30:40;;;;;;;6.15;2.40;;;;;;;;;;5134475;27;20518;-61
2023/07/23 11:33:06;;;;;;;;;;;;;;;;;;5111419;27;20019;-61
2023/07/23 11:35:31;;;;;;;5.10;2.20;;;;;;;;;;5118671;27;19918;-61
2023/07/23 11:37:56;;;;;;;;;;;;;;;;;;5130340;27;20023;-61
2023/07/23 11:40:23;;;;;;;5.70;2.58;;;;;;;;;;5130694;27;19981;-62
2023/07/23 11:42:48;;;;;;;5.50;2.60;;;;;;;;;;5127467;27;20039;-61
2023/07/23 11:45:13;;;;;;;;;;;;;;;;;;5128958;27;20031;-62
2023/07/23 11:47:46;;;;;;;5.30;2.45;;;;;;;;;;5128378;27;19956;-62
2023/07/23 11:50:11;;;;;;;4.95;2.40;;;;;;;;;;5127223;27;20023;-62
2023/07/23 11:52:36;;;;;;;;;;;;;;;;;;5117926;27;20050;-61
2023/07/23 11:55:01;;;;;;;4.97;2.33;;;;;;;;;;5120796;27;19907;-61
2023/07/23 11:57:26;;;;;;;6.10;2.10;;;;;;;;;;5123072;27;20043;-61
2023/07/23 11:59:52;;;;;;;4.57;2.23;;;;;;;;;;5122089;27;20443;-61
2023/07/23 12:02:17;;;;;;;4.23;2.40;;;;;;;;;;5124627;27;20023;-62
2023/07/23 12:04:42;;;;;;;5.53;2.38;;;;;;;;;;5126895;27;20023;-59
2023/07/23 12:07:08;;;;;;;4.47;2.47;;;;;;;;;;5127904;27;20015;-63
2023/07/23 12:09:34;;;;;;;5.57;2.40;;;;;;;;;;5134052;27;20377;-61
2023/07/23 12:11:59;;;;;;;4.88;2.35;;;;;;;;;;5128061;27;20479;-61
2023/07/23 12:14:24;;;;;;;;;;;;;;;;;;5122611;27;20034;-61
2023/07/23 12:16:49;;;;;;;4.90;2.42;;;;;;;;;;5119356;27;20363;-62
2023/07/23 12:19:21;;;;;;;5.07;2.40;;;;;;;;;;5115473;27;20511;-61
2023/07/23 12:21:53;;;;;;;5.57;2.40;;;;;;;;;;5128378;27;20072;-61
2023/07/23 12:24:20;;;;;;;6.65;2.33;;;;;;;;;;5135961;27;20019;-61
2023/07/23 12:26:46;;;;;;;5.10;2.30;;;;;;;;;;5128216;27;20023;-61
2023/07/23 12:29:12;;;;;;;6.00;2.70;;;;;;;;;;5134207;27;20099;-62
2023/07/23 12:31:41;;;;;;;5.18;2.65;;;;;;;;;;5119814;27;20089;-61
2023/07/23 12:34:07;;;;;;;6.57;2.47;;;;;;;;;;5118254;27;20025;-63
2023/07/23 12:36:32;;;;;;;4.88;2.58;;;;;;;;;;5122181;27;20019;-59
2023/07/23 12:38:57;;;;;;;4.80;2.50;;;;;;;;;;5119774;27;20112;-61
2023/07/23 12:41:22;;;;;;;4.80;2.40;;;;;;;;;;5118600;27;20016;-60
2023/07/23 12:43:47;;;;;;;4.30;2.30;;;;;;;;;;5126819;27;20433;-62
2023/07/23 12:46:14;;;;;;;5.18;2.50;;;;;;;;;;5120775;27;20027;-63
2023/07/23 12:48:39;;;;;;;6.43;2.67;;;;;;;;;;5121749;27;20447;-62
2023/07/23 12:51:04;;;;;;;6.13;2.80;;;;;;;;;;5127586;27;20033;-61
2023/07/23 12:53:29;;;;;;;6.05;2.30;;;;;;;;;;5124422;27;20019;-62
2023/07/23 12:55:54;;;;;;;6.27;2.40;;;;;;;;;;5128969;27;20003;-61
2023/07/23 12:58:19;;;;;;;6.53;2.90;;;;;;;;;;5125071;27;20505;-61
2023/07/23 13:00:45;;;;;;;5.53;2.63;;;;;;;;;;5131636;27;20016;-62
2023/07/23 13:03:10;;;;;;;4.83;2.40;;;;;;;;;;5131395;27;20027;-61
2023/07/23 13:05:35;;;;;;;5.43;2.93;;;;;;;;;;5131262;27;20023;-61
2023/07/23 13:08:00;;;;;;;5.47;2.60;;;;;;;;;;5131563;27;20386;-62
2023/07/23 13:10:26;;;;;;;6.32;2.85;;;;;;;;;;5127719;27;20461;-62
2023/07/23 13:12:51;;;;;;;5.90;2.70;;;;;;;;;;5138744;27;20023;-62
2023/07/23 13:15:16;;;;;;;4.78;2.65;;;;;;;;;;5131114;27;20015;-61
2023/07/23 13:17:41;;;;;;;6.70;3.00;;;;;;;;;;5123859;27;20391;-62
2023/07/23 13:20:06;;;;;;;7.00;2.90;;;;;;;;;;5125665;27;20012;-62
2023/07/23 13:22:32;;;;;;;5.13;2.83;;;;;;;;;;5129418;27;20496;-62
2023/07/23 13:24:57;;;;;;;6.22;2.88;;;;;;;;;;5134184;27;20019;-62
2023/07/23 13:27:22;;;;;;;5.30;3.03;;;;;;;;;;5134528;27;20036;-62
2023/07/23 13:29:48;;;;;;;5.55;3.22;;;;;;;;;;5134414;27;20110;-63
2023/07/23 13:32:13;;;;;;;7.20;3.00;;;;;;;;;;5128274;27;20471;-63
2023/07/23 13:34:38;;;;;;;4.93;2.60;;;;;;;;;;5120037;27;20084;-61
2023/07/23 13:37:03;;;;;;;5.47;2.70;;;;;;;;;;5126183;27;20497;-62
2023/07/23 13:39:28;;;;;;;7.23;2.60;;;;;;;;;;5129629;27;20090;-62
2023/07/23 13:41:54;;;;;;;5.63;3.00;;;;;;;;;;5134850;27;20018;-63
2023/07/23 13:44:19;;;;;;;5.70;3.00;;;;;;;;;;5134065;27;20102;-63
2023/07/23 13:46:44;;;;;;;7.20;3.27;;;;;;;;;;5126233;27;20439;-63
2023/07/23 13:49:09;;;;;;;6.47;3.30;;;;;;;;;;5134120;27;20019;-63
2023/07/23 13:51:34;;;;;;;8.80;3.70;;;;;;;;;;5136979;27;20461;-62
2023/07/23 13:54:00;;;;;;;7.32;3.78;;;;;;;;;;5133596;27;20512;-60
2023/07/23 13:56:25;;;;;;;7.45;3.88;;;;;;;;;;5129019;27;20020;-61
2023/07/23 13:58:50;;;;;;;6.35;3.30;;;;;;;;;;5134087;27;20136;-61
2023/07/23 14:01:15;;;;;;;6.60;3.40;;;;;;;;;;5133715;27;20019;-62
2023/07/23 14:03:40;;;;;;;7.43;3.67;;;;;;;;;;5115146;27;20127;-63
2023/07/23 14:06:06;;;;;;;5.67;2.93;;;;;;;;;;5126470;27;20019;-60
2023/07/23 14:08:31;;;;;;;5.73;2.70;;;;;;;;;;5131219;27;20047;-61
2023/07/23 14:10:56;;;;;;;5.83;3.00;;;;;;;;;;5129421;27;20026;-61
2023/07/23 14:13:21;;;;;;;5.70;3.37;;;;;;;;;;5123763;27;20011;-60
2023/07/23 14:15:46;;;;;;;6.70;3.10;;;;;;;;;;5133513;27;20479;-61
2023/07/23 14:18:12;;;;;;;5.23;2.50;;;;;;;;;;5133706;27;20003;-61
2023/07/23 14:20:37;;;;;;;5.87;2.80;;;;;;;;;;5133223;27;20433;-60
2023/07/23 14:23:02;;;;;;;4.90;2.60;;;;;;;;;;5136536;27;20497;-61
2023/07/23 14:25:27;;;;;;;5.40;2.47;;;;;;;;;;5121140;27;20455;-60
2023/07/23 14:27:52;;;;;;;4.50;2.50;;;;;;;;;;5127268;27;20019;-62
2023/07/23 14:30:18;;;;;;;5.57;2.92;;;;;;;;;;5124271;27;21550;-61
2023/07/23 14:32:43;;;;;;;6.40;2.60;;;;;;;;;;5129195;27;20023;-62
2023/07/23 14:35:09;;;;;;;4.67;2.43;;;;;;;;;;5134231;27;20017;-63
2023/07/23 14:37:34;;;;;;;6.97;2.42;;;;;;;;;;5130434;27;20018;-61
2023/07/23 14:39:59;;;;;;;5.03;2.60;;;;;;;;;;5118621;27;20475;-62
2023/07/23 14:42:24;;;;;;;5.60;2.30;;;;;;;;;;5120914;27;20467;-61
2023/07/23 14:44:51;;;;;;;4.93;2.40;;;;;;;;;;5131178;27;20020;-61
2023/07/23 14:47:16;;;;;;;5.13;2.70;;;;;;;;;;5142834;27;20399;-60